sensor_id;sensor_type;location;lat;lon;timestamp;temperature;humidity
2062;DHT22;11070;51.336;12.340;2022-10-01T00:01:11;8.20;99.90
2062;DHT22;11070;51.336;12.340;2022-10-01T00:03:37;8.20;99.90
2062;DHT22;11070;51.336;12.340;2022-10-01T00:06:12;8.20;99.90
2062;DHT22;11070;51.336;12.340;2022-10-01T00:08:40;8.20;99.90
2062;DHT22;11070;51.336;12.340;2022-10-01T00:11:11;8.20;99.90
2062;DHT22;11070;51.336;12.340;2022-10-01T00:13:41;8.10;99.90
2062;DHT22;11070;51.336;12.340;2022-10-01T00:16:13;8.10;99.90
2062;DHT22;11070;51.336;12.340;2022-10-01T00:18:40;8.10;99.90
2062;DHT22;11070;51.336;12.340;2022-10-01T00:21:07;8.10;99.90
2062;DHT22;11070;51.336;12.340;2022-10-01T00:23:33;8.00;99.90
2062;DHT22;11070;51.336;12.340;2022-10-01T00:28:39;8.00;99.90
2062;DHT22;11070;51.336;12.340;2022-10-01T00:31:07;8.00;99.90
2062;DHT22;11070;51.336;12.340;2022-10-01T00:33:33;8.00;99.90
2062;DHT22;11070;51.336;12.340;2022-10-01T00:35:59;8.00;99.90
2062;DHT22;11070;51.336;12.340;2022-10-01T00:38:25;8.00;99.90
2062;DHT22;11070;51.336;12.340;2022-10-01T00:40:50;8.00;99.90
2062;DHT22;11070;51.336;12.340;2022-10-01T00:43:23;8.00;99.90
2062;DHT22;11070;51.336;12.340;2022-10-01T00:45:50;8.10;99.90
2062;DHT22;11070;51.336;12.340;2022-10-01T00:48:19;8.00;99.90
2062;DHT22;11070;51.336;12.340;2022-10-01T00:50:45;8.00;99.90
2062;DHT22;11070;51.336;12.340;2022-10-01T00:53:13;8.10;95.60
2062;DHT22;11070;51.336;12.340;2022-10-01T00:55:52;8.10;82.60
2062;DHT22;11070;51.336;12.340;2022-10-01T00:58:20;8.10;75.30
2062;DHT22;11070;51.336;12.340;2022-10-01T01:00:47;8.10;64.00
2062;DHT22;11070;51.336;12.340;2022-10-01T01:03:13;8.00;63.70
2062;DHT22;11070;51.336;12.340;2022-10-01T01:05:39;8.10;66.10
2062;DHT22;11070;51.336;12.340;2022-10-01T01:08:05;8.10;53.10
2062;DHT22;11070;51.336;12.340;2022-10-01T01:11:02;8.10;49.40
2062;DHT22;11070;51.336;12.340;2022-10-01T01:16:30;8.10;42.20
2062;DHT22;11070;51.336;12.340;2022-10-01T01:22:04;8.00;46.50
2062;DHT22;11070;51.336;12.340;2022-10-01T01:27:35;8.10;38.40
2062;DHT22;11070;51.336;12.340;2022-10-01T01:30:03;8.10;37.70
2062;DHT22;11070;51.336;12.340;2022-10-01T01:33:06;8.10;31.40
2062;DHT22;11070;51.336;12.340;2022-10-01T01:35:42;8.10;35.00
2062;DHT22;11070;51.336;12.340;2022-10-01T01:38:13;8.00;45.10
2062;DHT22;11070;51.336;12.340;2022-10-01T01:40:42;7.90;52.50
2062;DHT22;11070;51.336;12.340;2022-10-01T01:43:13;7.90;54.70
2062;DHT22;11070;51.336;12.340;2022-10-01T01:45:47;7.90;64.70
2062;DHT22;11070;51.336;12.340;2022-10-01T01:48:13;7.90;57.80
2062;DHT22;11070;51.336;12.340;2022-10-01T01:50:48;7.90;57.30
2062;DHT22;11070;51.336;12.340;2022-10-01T01:53:17;7.90;60.20
2062;DHT22;11070;51.336;12.340;2022-10-01T01:55:43;8.00;56.40
2062;DHT22;11070;51.336;12.340;2022-10-01T01:58:10;8.00;50.10
2062;DHT22;11070;51.336;12.340;2022-10-01T02:00:36;7.90;53.70
2062;DHT22;11070;51.336;12.340;2022-10-01T02:03:02;7.90;68.50
2062;DHT22;11070;51.336;12.340;2022-10-01T02:05:32;7.90;72.50
2062;DHT22;11070;51.336;12.340;2022-10-01T02:08:10;7.90;70.10
2062;DHT22;11070;51.336;12.340;2022-10-01T02:21:25;8.00;88.60
2062;DHT22;11070;51.336;12.340;2022-10-01T02:24:00;7.90;99.90
2062;DHT22;11070;51.336;12.340;2022-10-01T02:26:29;8.00;99.90
2062;DHT22;11070;51.336;12.340;2022-10-01T02:29:00;8.00;99.90
2062;DHT22;11070;51.336;12.340;2022-10-01T02:31:28;7.90;99.90
2062;DHT22;11070;51.336;12.340;2022-10-01T02:33:55;8.00;99.90
2062;DHT22;11070;51.336;12.340;2022-10-01T02:36:23;8.00;99.90
2062;DHT22;11070;51.336;12.340;2022-10-01T02:38:51;8.00;99.90
2062;DHT22;11070;51.336;12.340;2022-10-01T02:41:23;8.00;99.90
2062;DHT22;11070;51.336;12.340;2022-10-01T02:46:30;8.10;99.90
2062;DHT22;11070;51.336;12.340;2022-10-01T02:48:58;8.10;99.90
2062;DHT22;11070;51.336;12.340;2022-10-01T02:51:53;8.20;99.90
2062;DHT22;11070;51.336;12.340;2022-10-01T02:54:29;8.20;93.80
2062;DHT22;11070;51.336;12.340;2022-10-01T02:56:57;8.20;93.20
2062;DHT22;11070;51.336;12.340;2022-10-01T02:59:41;8.20;96.10
2062;DHT22;11070;51.336;12.340;2022-10-01T03:02:06;8.20;98.60
2062;DHT22;11070;51.336;12.340;2022-10-01T03:04:32;8.20;95.90
2062;DHT22;11070;51.336;12.340;2022-10-01T03:06:57;8.20;99.90
2062;DHT22;11070;51.336;12.340;2022-10-01T03:09:29;8.20;99.80
2062;DHT22;11070;51.336;12.340;2022-10-01T03:11:55;8.20;99.90
2062;DHT22;11070;51.336;12.340;2022-10-01T03:14:22;8.20;99.90
2062;DHT22;11070;51.336;12.340;2022-10-01T03:16:49;8.20;99.90
2062;DHT22;11070;51.336;12.340;2022-10-01T03:19:14;8.20;99.90
2062;DHT22;11070;51.336;12.340;2022-10-01T03:21:40;8.20;99.90
2062;DHT22;11070;51.336;12.340;2022-10-01T03:24:06;8.30;99.90
2062;DHT22;11070;51.336;12.340;2022-10-01T03:26:31;8.20;99.90
2062;DHT22;11070;51.336;12.340;2022-10-01T03:28:57;8.30;99.90
2062;DHT22;11070;51.336;12.340;2022-10-01T03:31:23;8.30;99.90
2062;DHT22;11070;51.336;12.340;2022-10-01T03:33:48;8.30;99.90
2062;DHT22;11070;51.336;12.340;2022-10-01T03:36:14;8.30;99.90
2062;DHT22;11070;51.336;12.340;2022-10-01T03:38:40;8.40;99.90
2062;DHT22;11070;51.336;12.340;2022-10-01T03:41:05;8.40;99.90
2062;DHT22;11070;51.336;12.340;2022-10-01T03:43:31;8.40;97.80
2062;DHT22;11070;51.336;12.340;2022-10-01T03:45:57;8.50;87.90
2062;DHT22;11070;51.336;12.340;2022-10-01T03:48:23;8.60;77.70
2062;DHT22;11070;51.336;12.340;2022-10-01T03:50:54;8.60;57.20
2062;DHT22;11070;51.336;12.340;2022-10-01T03:53:20;8.50;56.00
2062;DHT22;11070;51.336;12.340;2022-10-01T03:55:46;8.60;50.00
2062;DHT22;11070;51.336;12.340;2022-10-01T03:58:12;8.60;45.90
2062;DHT22;11070;51.336;12.340;2022-10-01T04:00:37;8.60;45.10
2062;DHT22;11070;51.336;12.340;2022-10-01T04:03:03;8.50;51.50
2062;DHT22;11070;51.336;12.340;2022-10-01T04:05:29;8.60;57.70
2062;DHT22;11070;51.336;12.340;2022-10-01T04:07:54;8.60;59.10
2062;DHT22;11070;51.336;12.340;2022-10-01T04:10:20;8.60;52.60
2062;DHT22;11070;51.336;12.340;2022-10-01T04:12:45;8.60;52.50
2062;DHT22;11070;51.336;12.340;2022-10-01T04:15:11;8.60;57.20
2062;DHT22;11070;51.336;12.340;2022-10-01T04:17:37;8.70;47.80
2062;DHT22;11070;51.336;12.340;2022-10-01T04:20:02;8.80;27.20
2062;DHT22;11070;51.336;12.340;2022-10-01T04:22:28;9.00;1.00
2062;DHT22;11070;51.336;12.340;2022-10-01T04:24:54;9.20;1.00
2062;DHT22;11070;51.336;12.340;2022-10-01T04:27:19;9.30;1.00
2062;DHT22;11070;51.336;12.340;2022-10-01T04:29:45;9.40;1.00
2062;DHT22;11070;51.336;12.340;2022-10-01T04:32:10;9.50;1.00
2062;DHT22;11070;51.336;12.340;2022-10-01T04:34:36;9.50;1.00
2062;DHT22;11070;51.336;12.340;2022-10-01T04:37:17;9.60;1.00
2062;DHT22;11070;51.336;12.340;2022-10-01T04:39:43;9.60;1.00
2062;DHT22;11070;51.336;12.340;2022-10-01T04:42:09;9.60;1.00
2062;DHT22;11070;51.336;12.340;2022-10-01T04:44:34;9.60;1.00
2062;DHT22;11070;51.336;12.340;2022-10-01T04:47:00;9.60;1.00
2062;DHT22;11070;51.336;12.340;2022-10-01T04:49:26;9.60;1.00
2062;DHT22;11070;51.336;12.340;2022-10-01T04:51:52;9.60;1.00
2062;DHT22;11070;51.336;12.340;2022-10-01T04:54:17;9.60;1.00
2062;DHT22;11070;51.336;12.340;2022-10-01T04:56:43;9.50;1.00
2062;DHT22;11070;51.336;12.340;2022-10-01T04:59:08;9.60;1.00
2062;DHT22;11070;51.336;12.340;2022-10-01T05:01:34;9.60;1.00
2062;DHT22;11070;51.336;12.340;2022-10-01T05:04:00;9.60;1.00
2062;DHT22;11070;51.336;12.340;2022-10-01T05:06:25;9.60;1.00
2062;DHT22;11070;51.336;12.340;2022-10-01T05:08:51;9.60;1.00
2062;DHT22;11070;51.336;12.340;2022-10-01T05:11:17;9.60;1.00
2062;DHT22;11070;51.336;12.340;2022-10-01T05:13:43;9.70;1.00
2062;DHT22;11070;51.336;12.340;2022-10-01T05:16:09;9.70;1.00
2062;DHT22;11070;51.336;12.340;2022-10-01T05:18:36;9.70;1.00
2062;DHT22;11070;51.336;12.340;2022-10-01T05:21:05;9.70;1.00
2062;DHT22;11070;51.336;12.340;2022-10-01T05:23:32;9.70;1.00
2062;DHT22;11070;51.336;12.340;2022-10-01T05:25:58;9.70;1.00
2062;DHT22;11070;51.336;12.340;2022-10-01T05:28:23;9.70;1.00
2062;DHT22;11070;51.336;12.340;2022-10-01T05:30:51;9.70;1.00
2062;DHT22;11070;51.336;12.340;2022-10-01T05:33:16;9.70;1.00
2062;DHT22;11070;51.336;12.340;2022-10-01T05:35:42;9.70;1.00
2062;DHT22;11070;51.336;12.340;2022-10-01T05:38:09;9.80;1.00
2062;DHT22;11070;51.336;12.340;2022-10-01T05:40:35;9.80;1.00
2062;DHT22;11070;51.336;12.340;2022-10-01T05:43:01;9.80;1.00
2062;DHT22;11070;51.336;12.340;2022-10-01T05:45:29;9.80;1.00
2062;DHT22;11070;51.336;12.340;2022-10-01T05:48:00;9.90;1.00
2062;DHT22;11070;51.336;12.340;2022-10-01T05:50:30;10.00;1.00
2062;DHT22;11070;51.336;12.340;2022-10-01T05:52:56;10.00;1.00
2062;DHT22;11070;51.336;12.340;2022-10-01T05:55:22;10.00;1.00
2062;DHT22;11070;51.336;12.340;2022-10-01T05:58:03;10.00;1.00
2062;DHT22;11070;51.336;12.340;2022-10-01T06:00:30;10.00;1.00
2062;DHT22;11070;51.336;12.340;2022-10-01T06:02:57;10.00;1.00
2062;DHT22;11070;51.336;12.340;2022-10-01T06:05:23;10.00;1.00
2062;DHT22;11070;51.336;12.340;2022-10-01T06:07:49;10.00;1.00
2062;DHT22;11070;51.336;12.340;2022-10-01T06:10:16;10.00;1.00
2062;DHT22;11070;51.336;12.340;2022-10-01T06:12:42;10.10;1.00
2062;DHT22;11070;51.336;12.340;2022-10-01T06:15:09;10.10;1.00
2062;DHT22;11070;51.336;12.340;2022-10-01T06:17:35;10.20;1.00
2062;DHT22;11070;51.336;12.340;2022-10-01T06:20:01;10.30;1.00
2062;DHT22;11070;51.336;12.340;2022-10-01T06:22:26;10.30;1.00
2062;DHT22;11070;51.336;12.340;2022-10-01T06:24:52;10.40;1.00
2062;DHT22;11070;51.336;12.340;2022-10-01T06:27:18;10.40;1.00
2062;DHT22;11070;51.336;12.340;2022-10-01T06:29:43;10.50;1.00
2062;DHT22;11070;51.336;12.340;2022-10-01T06:32:09;10.50;1.00
2062;DHT22;11070;51.336;12.340;2022-10-01T06:34:38;10.50;99.90
2062;DHT22;11070;51.336;12.340;2022-10-01T06:37:04;10.60;99.90
2062;DHT22;11070;51.336;12.340;2022-10-01T06:39:29;10.60;99.90
2062;DHT22;11070;51.336;12.340;2022-10-01T06:41:55;10.60;99.90
2062;DHT22;11070;51.336;12.340;2022-10-01T06:44:27;10.60;99.90
2062;DHT22;11070;51.336;12.340;2022-10-01T06:46:52;10.70;99.90
2062;DHT22;11070;51.336;12.340;2022-10-01T06:49:18;10.70;99.90
2062;DHT22;11070;51.336;12.340;2022-10-01T06:51:45;10.70;99.90
2062;DHT22;11070;51.336;12.340;2022-10-01T06:54:29;10.70;99.90
2062;DHT22;11070;51.336;12.340;2022-10-01T06:56:54;10.80;99.90
2062;DHT22;11070;51.336;12.340;2022-10-01T06:59:20;10.80;99.90
2062;DHT22;11070;51.336;12.340;2022-10-01T07:01:48;10.80;1.00
2062;DHT22;11070;51.336;12.340;2022-10-01T07:04:14;10.80;58.20
2062;DHT22;11070;51.336;12.340;2022-10-01T07:06:39;10.80;99.90
2062;DHT22;11070;51.336;12.340;2022-10-01T07:09:05;10.90;1.00
2062;DHT22;11070;51.336;12.340;2022-10-01T07:11:31;10.90;1.00
2062;DHT22;11070;51.336;12.340;2022-10-01T07:13:56;10.90;1.00
2062;DHT22;11070;51.336;12.340;2022-10-01T07:16:22;11.00;1.00
2062;DHT22;11070;51.336;12.340;2022-10-01T07:18:47;11.00;1.00
2062;DHT22;11070;51.336;12.340;2022-10-01T07:21:13;11.00;99.90
2062;DHT22;11070;51.336;12.340;2022-10-01T07:23:39;11.00;99.90
2062;DHT22;11070;51.336;12.340;2022-10-01T07:26:05;11.00;1.00
2062;DHT22;11070;51.336;12.340;2022-10-01T07:28:33;11.00;1.00
2062;DHT22;11070;51.336;12.340;2022-10-01T07:31:05;11.00;99.90
2062;DHT22;11070;51.336;12.340;2022-10-01T07:33:32;11.00;99.90
2062;DHT22;11070;51.336;12.340;2022-10-01T07:36:02;11.10;49.50
2062;DHT22;11070;51.336;12.340;2022-10-01T07:38:28;11.10;99.90
2062;DHT22;11070;51.336;12.340;2022-10-01T07:40:54;11.10;99.90
2062;DHT22;11070;51.336;12.340;2022-10-01T07:43:20;11.10;99.90
2062;DHT22;11070;51.336;12.340;2022-10-01T07:45:46;11.10;1.00
2062;DHT22;11070;51.336;12.340;2022-10-01T07:48:12;11.10;1.00
2062;DHT22;11070;51.336;12.340;2022-10-01T07:50:44;11.10;99.90
2062;DHT22;11070;51.336;12.340;2022-10-01T07:53:10;11.00;99.90
2062;DHT22;11070;51.336;12.340;2022-10-01T07:55:36;10.90;1.00
2062;DHT22;11070;51.336;12.340;2022-10-01T07:58:02;10.90;1.00
2062;DHT22;11070;51.336;12.340;2022-10-01T08:00:30;10.80;1.00
2062;DHT22;11070;51.336;12.340;2022-10-01T08:02:57;10.80;1.00
2062;DHT22;11070;51.336;12.340;2022-10-01T08:05:26;10.80;1.00
2062;DHT22;11070;51.336;12.340;2022-10-01T08:07:52;10.70;1.00
2062;DHT22;11070;51.336;12.340;2022-10-01T08:10:19;10.70;1.00
2062;DHT22;11070;51.336;12.340;2022-10-01T08:12:45;10.70;1.00
2062;DHT22;11070;51.336;12.340;2022-10-01T08:15:12;10.70;1.00
2062;DHT22;11070;51.336;12.340;2022-10-01T08:17:39;10.70;1.00
2062;DHT22;11070;51.336;12.340;2022-10-01T08:20:06;10.70;1.00
2062;DHT22;11070;51.336;12.340;2022-10-01T08:22:32;10.80;1.00
2062;DHT22;11070;51.336;12.340;2022-10-01T08:24:58;10.80;1.00
2062;DHT22;11070;51.336;12.340;2022-10-01T08:27:25;10.80;1.00
2062;DHT22;11070;51.336;12.340;2022-10-01T08:29:51;10.80;1.00
2062;DHT22;11070;51.336;12.340;2022-10-01T08:32:17;10.90;1.00
2062;DHT22;11070;51.336;12.340;2022-10-01T08:34:42;10.90;1.00
2062;DHT22;11070;51.336;12.340;2022-10-01T08:37:08;10.90;1.00
2062;DHT22;11070;51.336;12.340;2022-10-01T08:39:33;11.00;1.00
2062;DHT22;11070;51.336;12.340;2022-10-01T08:42:09;11.10;1.00
2062;DHT22;11070;51.336;12.340;2022-10-01T08:44:42;11.20;1.00
2062;DHT22;11070;51.336;12.340;2022-10-01T08:47:21;11.20;1.00
2062;DHT22;11070;51.336;12.340;2022-10-01T08:49:53;11.20;1.00
2062;DHT22;11070;51.336;12.340;2022-10-01T08:52:29;11.20;1.00
2062;DHT22;11070;51.336;12.340;2022-10-01T08:55:08;11.20;1.00
2062;DHT22;11070;51.336;12.340;2022-10-01T08:57:41;11.30;1.00
2062;DHT22;11070;51.336;12.340;2022-10-01T09:00:16;11.30;1.00
2062;DHT22;11070;51.336;12.340;2022-10-01T09:02:43;11.40;1.00
2062;DHT22;11070;51.336;12.340;2022-10-01T09:05:29;11.30;1.00
2062;DHT22;11070;51.336;12.340;2022-10-01T09:15:41;11.40;1.00
2062;DHT22;11070;51.336;12.340;2022-10-01T09:18:13;11.30;1.00
2062;DHT22;11070;51.336;12.340;2022-10-01T09:20:52;11.30;1.00
2062;DHT22;11070;51.336;12.340;2022-10-01T09:23:35;11.30;1.00
2062;DHT22;11070;51.336;12.340;2022-10-01T09:26:04;11.30;1.00
2062;DHT22;11070;51.336;12.340;2022-10-01T09:28:36;11.30;1.00
2062;DHT22;11070;51.336;12.340;2022-10-01T09:33:42;11.10;1.00
2062;DHT22;11070;51.336;12.340;2022-10-01T09:36:15;11.10;1.00
2062;DHT22;11070;51.336;12.340;2022-10-01T09:38:50;11.10;1.00
2062;DHT22;11070;51.336;12.340;2022-10-01T09:41:19;11.00;1.00
2062;DHT22;11070;51.336;12.340;2022-10-01T09:43:44;10.90;3.00
2062;DHT22;11070;51.336;12.340;2022-10-01T09:46:14;10.90;16.20
2062;DHT22;11070;51.336;12.340;2022-10-01T09:49:03;10.90;36.10
2062;DHT22;11070;51.336;12.340;2022-10-01T09:51:41;10.90;42.10
2062;DHT22;11070;51.336;12.340;2022-10-01T09:54:31;10.90;78.30
2062;DHT22;11070;51.336;12.340;2022-10-01T10:02:48;11.00;66.80
2062;DHT22;11070;51.336;12.340;2022-10-01T10:05:15;11.00;74.20
2062;DHT22;11070;51.336;12.340;2022-10-01T10:07:53;10.90;75.40
2062;DHT22;11070;51.336;12.340;2022-10-01T10:10:24;10.90;59.10
2062;DHT22;11070;51.336;12.340;2022-10-01T10:13:03;10.90;87.90
2062;DHT22;11070;51.336;12.340;2022-10-01T10:15:31;10.90;80.60
2062;DHT22;11070;51.336;12.340;2022-10-01T10:18:21;10.90;99.90
2062;DHT22;11070;51.336;12.340;2022-10-01T10:20:51;10.90;99.90
2062;DHT22;11070;51.336;12.340;2022-10-01T10:23:20;10.90;99.90
2062;DHT22;11070;51.336;12.340;2022-10-01T10:25:59;10.90;99.90
2062;DHT22;11070;51.336;12.340;2022-10-01T10:28:26;10.90;79.20
2062;DHT22;11070;51.336;12.340;2022-10-01T10:30:54;10.90;99.90
2062;DHT22;11070;51.336;12.340;2022-10-01T10:33:22;10.90;99.90
2062;DHT22;11070;51.336;12.340;2022-10-01T10:36:18;10.90;99.90
2062;DHT22;11070;51.336;12.340;2022-10-01T10:38:48;10.80;99.90
2062;DHT22;11070;51.336;12.340;2022-10-01T10:41:17;10.80;99.90
2062;DHT22;11070;51.336;12.340;2022-10-01T10:43:58;10.80;99.90
2062;DHT22;11070;51.336;12.340;2022-10-01T10:46:36;10.90;99.90
2062;DHT22;11070;51.336;12.340;2022-10-01T10:49:25;10.80;99.90
2062;DHT22;11070;51.336;12.340;2022-10-01T10:51:56;10.90;99.90
2062;DHT22;11070;51.336;12.340;2022-10-01T10:54:35;10.90;99.90
2062;DHT22;11070;51.336;12.340;2022-10-01T10:57:25;10.90;99.90
2062;DHT22;11070;51.336;12.340;2022-10-01T11:00:00;10.90;99.90
2062;DHT22;11070;51.336;12.340;2022-10-01T11:02:30;10.90;99.90
2062;DHT22;11070;51.336;12.340;2022-10-01T11:05:23;11.00;99.90
2062;DHT22;11070;51.336;12.340;2022-10-01T11:07:53;11.00;99.90
2062;DHT22;11070;51.336;12.340;2022-10-01T11:19:25;11.20;99.90
2062;DHT22;11070;51.336;12.340;2022-10-01T11:30:43;11.40;91.60
2062;DHT22;11070;51.336;12.340;2022-10-01T11:39:03;11.60;1.00
2062;DHT22;11070;51.336;12.340;2022-10-01T11:44:15;11.70;13.40
2062;DHT22;11070;51.336;12.340;2022-10-01T11:47:10;11.70;1.00
2062;DHT22;11070;51.336;12.340;2022-10-01T11:49:59;11.70;1.00
2062;DHT22;11070;51.336;12.340;2022-10-01T11:52:41;11.70;1.00
2062;DHT22;11070;51.336;12.340;2022-10-01T11:55:20;11.70;1.00
2062;DHT22;11070;51.336;12.340;2022-10-01T11:58:10;11.60;1.00
2062;DHT22;11070;51.336;12.340;2022-10-01T12:01:09;11.70;1.00
2062;DHT22;11070;51.336;12.340;2022-10-01T12:12:14;11.60;1.00
2062;DHT22;11070;51.336;12.340;2022-10-01T12:17:30;11.70;1.00
2062;DHT22;11070;51.336;12.340;2022-10-01T12:19:58;11.70;1.00
2062;DHT22;11070;51.336;12.340;2022-10-01T12:22:34;11.80;1.00
2062;DHT22;11070;51.336;12.340;2022-10-01T12:25:02;11.80;1.00
2062;DHT22;11070;51.336;12.340;2022-10-01T12:30:14;11.90;1.00
2062;DHT22;11070;51.336;12.340;2022-10-01T12:49:41;12.20;1.00
2062;DHT22;11070;51.336;12.340;2022-10-01T12:52:34;12.20;1.00
2062;DHT22;11070;51.336;12.340;2022-10-01T12:55:50;12.40;1.00
2062;DHT22;11070;51.336;12.340;2022-10-01T13:04:29;12.60;99.90
2062;DHT22;11070;51.336;12.340;2022-10-01T13:12:40;12.60;99.90
2062;DHT22;11070;51.336;12.340;2022-10-01T13:15:19;12.60;1.00
2062;DHT22;11070;51.336;12.340;2022-10-01T13:21:00;12.50;1.00
2062;DHT22;11070;51.336;12.340;2022-10-01T13:23:42;12.50;1.00
2062;DHT22;11070;51.336;12.340;2022-10-01T13:27:00;12.40;1.00
2062;DHT22;11070;51.336;12.340;2022-10-01T13:29:18;12.50;1.00
2062;DHT22;11070;51.336;12.340;2022-10-01T13:31:59;12.50;1.00
2062;DHT22;11070;51.336;12.340;2022-10-01T13:37:15;12.50;1.00
2062;DHT22;11070;51.336;12.340;2022-10-01T13:39:42;12.50;1.00
2062;DHT22;11070;51.336;12.340;2022-10-01T13:42:19;12.60;1.00
2062;DHT22;11070;51.336;12.340;2022-10-01T13:44:57;12.60;1.00
2062;DHT22;11070;51.336;12.340;2022-10-01T13:47:24;12.70;1.00
2062;DHT22;11070;51.336;12.340;2022-10-01T13:49:56;12.80;1.00
2062;DHT22;11070;51.336;12.340;2022-10-01T13:52:23;12.80;99.90
2062;DHT22;11070;51.336;12.340;2022-10-01T13:54:52;12.90;99.90
2062;DHT22;11070;51.336;12.340;2022-10-01T13:57:37;13.00;99.90
2062;DHT22;11070;51.336;12.340;2022-10-01T14:02:40;13.20;1.00
2062;DHT22;11070;51.336;12.340;2022-10-01T14:07:44;13.40;99.90
2062;DHT22;11070;51.336;12.340;2022-10-01T14:10:13;13.50;99.90
2062;DHT22;11070;51.336;12.340;2022-10-01T14:12:41;13.60;1.00
2062;DHT22;11070;51.336;12.340;2022-10-01T14:15:43;13.60;1.00
2062;DHT22;11070;51.336;12.340;2022-10-01T14:18:46;13.60;1.00
2062;DHT22;11070;51.336;12.340;2022-10-01T14:27:32;13.50;99.90
2062;DHT22;11070;51.336;12.340;2022-10-01T14:33:02;13.70;1.00
2062;DHT22;11070;51.336;12.340;2022-10-01T14:35:44;13.70;1.00
2062;DHT22;11070;51.336;12.340;2022-10-01T14:38:18;13.80;1.00
2062;DHT22;11070;51.336;12.340;2022-10-01T14:40:47;13.80;1.00
2062;DHT22;11070;51.336;12.340;2022-10-01T14:43:23;13.90;99.90
2062;DHT22;11070;51.336;12.340;2022-10-01T14:45:59;13.90;75.60
2062;DHT22;11070;51.336;12.340;2022-10-01T14:48:36;13.90;1.00
2062;DHT22;11070;51.336;12.340;2022-10-01T14:51:05;13.90;1.00
2062;DHT22;11070;51.336;12.340;2022-10-01T14:53:34;13.90;24.50
2062;DHT22;11070;51.336;12.340;2022-10-01T14:56:06;13.90;99.90
2062;DHT22;11070;51.336;12.340;2022-10-01T14:58:37;13.90;1.00
2062;DHT22;11070;51.336;12.340;2022-10-01T15:01:05;13.80;1.00
2062;DHT22;11070;51.336;12.340;2022-10-01T15:03:38;13.80;99.90
2062;DHT22;11070;51.336;12.340;2022-10-01T15:06:12;13.80;1.00
2062;DHT22;11070;51.336;12.340;2022-10-01T15:08:42;13.70;99.90
2062;DHT22;11070;51.336;12.340;2022-10-01T15:11:15;13.60;1.00
2062;DHT22;11070;51.336;12.340;2022-10-01T15:13:44;13.60;99.90
2062;DHT22;11070;51.336;12.340;2022-10-01T15:16:17;13.60;99.90
2062;DHT22;11070;51.336;12.340;2022-10-01T15:19:01;13.60;1.00
2062;DHT22;11070;51.336;12.340;2022-10-01T15:23:56;13.50;1.00
2062;DHT22;11070;51.336;12.340;2022-10-01T15:26:24;13.50;57.50
2062;DHT22;11070;51.336;12.340;2022-10-01T15:29:01;13.50;99.90
2062;DHT22;11070;51.336;12.340;2022-10-01T15:31:27;13.40;99.90
2062;DHT22;11070;51.336;12.340;2022-10-01T15:33:53;13.40;99.90
2062;DHT22;11070;51.336;12.340;2022-10-01T15:36:19;13.40;99.90
2062;DHT22;11070;51.336;12.340;2022-10-01T15:38:45;13.40;99.90
2062;DHT22;11070;51.336;12.340;2022-10-01T15:41:22;13.40;99.90
2062;DHT22;11070;51.336;12.340;2022-10-01T15:43:52;13.40;99.90
2062;DHT22;11070;51.336;12.340;2022-10-01T15:49:19;13.30;99.90
2062;DHT22;11070;51.336;12.340;2022-10-01T15:51:52;13.30;99.90
2062;DHT22;11070;51.336;12.340;2022-10-01T15:54:40;13.30;1.00
2062;DHT22;11070;51.336;12.340;2022-10-01T15:57:07;13.30;1.00
2062;DHT22;11070;51.336;12.340;2022-10-01T15:59:35;13.30;1.00
2062;DHT22;11070;51.336;12.340;2022-10-01T16:02:07;13.20;1.00
2062;DHT22;11070;51.336;12.340;2022-10-01T16:04:35;13.20;1.00
2062;DHT22;11070;51.336;12.340;2022-10-01T16:07:01;13.30;1.00
2062;DHT22;11070;51.336;12.340;2022-10-01T16:09:31;13.20;1.00
2062;DHT22;11070;51.336;12.340;2022-10-01T16:14:39;13.20;1.00
2062;DHT22;11070;51.336;12.340;2022-10-01T16:17:27;13.20;1.00
2062;DHT22;11070;51.336;12.340;2022-10-01T16:19:59;13.30;1.00
2062;DHT22;11070;51.336;12.340;2022-10-01T16:22:29;13.30;1.00
2062;DHT22;11070;51.336;12.340;2022-10-01T16:24:58;13.30;1.00
2062;DHT22;11070;51.336;12.340;2022-10-01T16:27:44;13.30;1.00
2062;DHT22;11070;51.336;12.340;2022-10-01T16:30:19;13.20;1.00
2062;DHT22;11070;51.336;12.340;2022-10-01T16:32:45;13.20;1.00
2062;DHT22;11070;51.336;12.340;2022-10-01T16:35:23;13.10;1.00
2062;DHT22;11070;51.336;12.340;2022-10-01T16:37:51;13.10;1.00
2062;DHT22;11070;51.336;12.340;2022-10-01T16:40:19;13.10;1.00
2062;DHT22;11070;51.336;12.340;2022-10-01T16:42:46;13.00;1.00
2062;DHT22;11070;51.336;12.340;2022-10-01T16:45:21;13.00;1.00
2062;DHT22;11070;51.336;12.340;2022-10-01T16:47:49;12.90;1.00
2062;DHT22;11070;51.336;12.340;2022-10-01T16:50:16;12.90;1.00
2062;DHT22;11070;51.336;12.340;2022-10-01T16:52:42;12.90;1.00
2062;DHT22;11070;51.336;12.340;2022-10-01T16:55:24;12.90;1.00
2062;DHT22;11070;51.336;12.340;2022-10-01T16:57:51;12.90;1.00
2062;DHT22;11070;51.336;12.340;2022-10-01T17:00:23;13.00;1.00
2062;DHT22;11070;51.336;12.340;2022-10-01T17:02:50;13.00;1.00
2062;DHT22;11070;51.336;12.340;2022-10-01T17:05:26;13.00;1.00
2062;DHT22;11070;51.336;12.340;2022-10-01T17:07:53;13.10;1.00
2062;DHT22;11070;51.336;12.340;2022-10-01T17:10:21;13.10;1.00
2062;DHT22;11070;51.336;12.340;2022-10-01T17:12:48;13.10;1.00
2062;DHT22;11070;51.336;12.340;2022-10-01T17:15:19;13.10;1.00
2062;DHT22;11070;51.336;12.340;2022-10-01T17:17:47;13.10;1.00
2062;DHT22;11070;51.336;12.340;2022-10-01T17:20:13;13.10;1.00
2062;DHT22;11070;51.336;12.340;2022-10-01T17:22:39;13.10;1.00
2062;DHT22;11070;51.336;12.340;2022-10-01T17:25:13;13.10;1.00
2062;DHT22;11070;51.336;12.340;2022-10-01T17:27:40;13.20;1.00
2062;DHT22;11070;51.336;12.340;2022-10-01T17:30:06;13.20;1.00
2062;DHT22;11070;51.336;12.340;2022-10-01T17:32:31;13.20;1.00
2062;DHT22;11070;51.336;12.340;2022-10-01T17:34:58;13.20;1.00
2062;DHT22;11070;51.336;12.340;2022-10-01T17:37:24;13.20;1.00
2062;DHT22;11070;51.336;12.340;2022-10-01T17:39:49;13.20;1.00
2062;DHT22;11070;51.336;12.340;2022-10-01T17:42:15;13.20;1.00
2062;DHT22;11070;51.336;12.340;2022-10-01T17:44:44;13.20;1.00
2062;DHT22;11070;51.336;12.340;2022-10-01T17:47:13;13.20;1.00
2062;DHT22;11070;51.336;12.340;2022-10-01T17:49:40;13.10;1.00
2062;DHT22;11070;51.336;12.340;2022-10-01T17:52:07;13.10;1.00
2062;DHT22;11070;51.336;12.340;2022-10-01T17:54:35;13.10;1.00
2062;DHT22;11070;51.336;12.340;2022-10-01T17:57:01;13.10;1.00
2062;DHT22;11070;51.336;12.340;2022-10-01T17:59:26;13.10;1.00
2062;DHT22;11070;51.336;12.340;2022-10-01T18:01:54;13.00;1.00
2062;DHT22;11070;51.336;12.340;2022-10-01T18:04:20;13.00;1.00
2062;DHT22;11070;51.336;12.340;2022-10-01T18:06:46;13.00;1.00
2062;DHT22;11070;51.336;12.340;2022-10-01T18:09:13;13.00;1.00
2062;DHT22;11070;51.336;12.340;2022-10-01T18:11:39;13.10;1.00
2062;DHT22;11070;51.336;12.340;2022-10-01T18:14:05;13.00;1.00
2062;DHT22;11070;51.336;12.340;2022-10-01T18:16:32;13.00;1.00
2062;DHT22;11070;51.336;12.340;2022-10-01T18:19:00;12.90;1.00
2062;DHT22;11070;51.336;12.340;2022-10-01T18:21:26;13.00;1.00
2062;DHT22;11070;51.336;12.340;2022-10-01T18:23:53;13.00;1.00